Time;durP1;ratioP1;P1;durP2;ratioP2;P2;SDS_P1;SDS_P2;PMS_P1;PMS_P2;Temp;Humidity;BMP_temperature;BMP_pressure;BME280_temperature;BME280_humidity;BME280_pressure;Samples;Min_cycle;Max_cycle;Signal;HPM_P1;HPM_P2
2022/07/06 00:01:50;;;;;;;3.58;3.05;;;;;;;13.85;64.84;102339.56;3567350;40;20064;-63
2022/07/06 00:04:16;;;;;;;5.15;3.40;;;;;;;13.85;65.18;102333.28;3567375;40;20131;-64
2022/07/06 00:06:41;;;;;;;6.45;3.30;;;;;;;13.82;65.16;102336.16;3567640;40;20071;-64
2022/07/06 00:09:07;;;;;;;6.45;3.30;;;;;;;13.82;65.33;102328.91;3567200;40;20103;-63
2022/07/06 00:11:32;;;;;;;9.13;3.20;;;;;;;13.82;65.12;102333.44;3567744;40;20076;-62
2022/07/06 00:13:58;;;;;;;4.18;3.03;;;;;;;13.79;65.74;102329.06;3567852;40;20076;-64
2022/07/06 00:16:24;;;;;;;4.68;3.28;;;;;;;13.76;65.66;102326.50;3569389;40;20056;-61
2022/07/06 00:18:51;;;;;;;5.32;3.13;;;;;;;13.64;65.62;102316.34;3565305;40;20041;-63
2022/07/06 00:21:17;;;;;;;4.10;3.22;;;;;;;13.68;66.12;102334.16;3568567;40;20060;-64
2022/07/06 00:23:43;;;;;;;5.65;3.33;;;;;;;13.64;65.70;102332.56;3568673;40;20056;-63
2022/07/06 00:26:09;;;;;;;5.45;3.67;;;;;;;13.64;65.66;102336.16;3568262;40;20304;-64
2022/07/06 00:28:34;;;;;;;5.95;3.28;;;;;;;13.65;65.65;102334.31;3572266;40;20056;-63
2022/07/06 00:31:00;;;;;;;4.82;2.97;;;;;;;13.65;65.84;102339.72;3570756;40;20133;-63
2022/07/06 00:33:26;;;;;;;5.45;3.50;;;;;;;13.63;66.23;102333.50;3565822;40;20057;-64
2022/07/06 00:35:52;;;;;;;5.40;3.22;;;;;;;13.63;66.46;102330.81;3566601;40;20061;-63
2022/07/06 00:38:18;;;;;;;4.88;3.00;;;;;;;13.60;66.11;102329.13;3567871;40;20053;-63
2022/07/06 00:40:43;;;;;;;4.75;3.28;;;;;;;13.63;66.27;102336.22;3566650;40;20100;-63
2022/07/06 00:43:09;;;;;;;5.28;3.20;;;;;;;13.62;66.24;102338.03;3566965;40;20049;-64
2022/07/06 00:45:34;;;;;;;4.60;3.38;;;;;;;13.62;66.33;102338.03;3568991;40;20303;-64
2022/07/06 00:48:00;;;;;;;9.45;3.33;;;;;;;13.57;66.77;102334.69;3568141;40;20064;-63
2022/07/06 00:50:28;;;;;;;4.05;3.60;;;;;;;13.54;66.88;102340.28;3567683;40;20057;-64
2022/07/06 00:52:58;;;;;;;5.53;3.70;;;;;;;13.54;66.55;102329.47;3567783;40;20376;-63
2022/07/06 00:55:31;;;;;;;5.15;3.75;;;;;;;13.54;66.58;102340.28;3568022;40;20388;-64
2022/07/06 00:57:57;;;;;;;6.90;3.97;;;;;;;13.44;66.05;102330.84;3567993;40;20391;-63
2022/07/06 01:00:28;;;;;;;4.43;3.80;;;;;;;13.43;66.80;102339.91;3569463;40;20064;-63
2022/07/06 01:02:55;;;;;;;5.07;3.67;;;;;;;13.30;66.57;102323.44;3567317;40;20088;-63
2022/07/06 01:05:21;;;;;;;5.22;3.75;;;;;;;13.29;66.67;102327.09;3570240;40;20041;-63
2022/07/06 01:07:50;;;;;;;6.45;4.10;;;;;;;13.30;66.39;102327.97;3570177;40;20240;-63
2022/07/06 01:10:20;;;;;;;8.25;4.65;;;;;;;13.22;66.99;102339.09;3568937;40;20052;-64
2022/07/06 01:12:47;;;;;;;6.65;4.45;;;;;;;13.15;67.01;102333.13;3569592;40;20072;-63
2022/07/06 01:15:25;;;;;;;7.57;4.40;;;;;;;13.14;67.63;102330.50;3571118;40;20158;-63
2022/07/06 01:17:52;;;;;;;6.95;4.40;;;;;;;13.15;67.17;102337.66;3571329;40;20375;-63
2022/07/06 01:20:20;;;;;;;5.55;4.55;;;;;;;13.15;67.64;102330.44;3569141;40;20473;-63
2022/07/06 01:22:49;;;;;;;5.78;4.45;;;;;;;13.14;68.01;102336.78;3570095;40;20076;-63
2022/07/06 01:25:14;;;;;;;4.88;4.40;;;;;;;13.11;67.95;102331.53;3569737;40;20377;-63
2022/07/06 01:27:42;;;;;;;7.85;4.68;;;;;;;13.04;67.76;102324.69;3569739;40;20090;-63
2022/07/06 01:30:20;;;;;;;5.13;4.35;;;;;;;13.08;67.93;102330.81;3568991;40;20068;-63
2022/07/06 01:32:46;;;;;;;7.75;4.88;;;;;;;13.09;68.06;102333.41;3567935;40;20498;-63
2022/07/06 01:35:14;;;;;;;8.45;5.15;;;;;;;13.08;67.37;102331.69;3569737;40;20347;-63
2022/07/06 01:37:42;;;;;;;6.40;4.35;;;;;;;13.07;67.34;102334.47;3567925;40;20064;-63
2022/07/06 01:40:10;;;;;;;8.23;4.55;;;;;;;13.04;67.94;102330.09;3569288;40;20060;-63
2022/07/06 01:42:37;;;;;;;7.45;5.13;;;;;;;12.98;68.06;102336.66;3569870;40;20048;-63
2022/07/06 01:45:05;;;;;;;6.72;4.70;;;;;;;12.94;68.13;102331.44;3570325;40;20048;-63
2022/07/06 01:47:30;;;;;;;7.10;4.95;;;;;;;12.89;68.14;102337.09;3569554;40;20113;-63
2022/07/06 01:50:06;;;;;;;9.00;5.22;;;;;;;12.83;68.78;102331.97;3570918;40;20061;-63
2022/07/06 01:52:32;;;;;;;5.90;5.15;;;;;;;12.79;68.83;102330.38;3560760;40;20080;-63
2022/07/06 01:54:57;;;;;;;8.63;5.60;;;;;;;12.71;68.65;102333.41;3570036;40;20083;-63
2022/07/06 01:57:23;;;;;;;11.13;5.25;;;;;;;12.67;68.99;102328.25;3569333;40;20064;-63
2022/07/06 01:59:48;;;;;;;8.27;5.60;;;;;;;12.31;69.22;102265.16;3569393;40;20403;-63
2022/07/06 02:02:15;;;;;;;8.13;5.72;;;;;;;12.59;69.36;102316.91;3570069;40;20427;-63
2022/07/06 02:04:40;;;;;;;8.70;5.85;;;;;;;12.57;69.51;102319.72;3570212;40;20048;-63
2022/07/06 02:07:06;;;;;;;7.75;5.55;;;;;;;12.58;69.42;102332.22;3568013;40;20056;-64
2022/07/06 02:09:32;;;;;;;7.43;5.70;;;;;;;12.56;69.65;102331.44;3568624;40;20065;-63
2022/07/06 02:11:57;;;;;;;6.88;5.70;;;;;;;12.57;70.07;102329.63;3566775;40;20599;-63
2022/07/06 02:14:23;;;;;;;8.43;5.65;;;;;;;12.43;70.12;102319.44;3569905;40;20071;-63
2022/07/06 02:16:48;;;;;;;7.65;6.10;;;;;;;12.45;69.82;102326.53;3568082;40;20073;-64
2022/07/06 02:19:14;;;;;;;7.72;5.80;;;;;;;12.50;70.39;102339.81;3568892;40;20137;-63
2022/07/06 02:21:39;;;;;;;8.05;5.93;;;;;;;12.44;70.25;102329.31;3557664;40;20372;-63
2022/07/06 02:24:05;;;;;;;8.98;5.97;;;;;;;12.44;71.06;102326.63;3569856;40;20057;-63
2022/07/06 02:26:31;;;;;;;8.35;5.75;;;;;;;12.41;70.61;102324.94;3571822;40;20053;-64
2022/07/06 02:28:57;;;;;;;10.00;6.63;;;;;;;12.42;70.21;102328.50;3573908;40;20232;-63
2022/07/06 02:31:22;;;;;;;9.45;5.82;;;;;;;12.40;70.67;102333.06;3570794;40;20049;-63
2022/07/06 02:33:48;;;;;;;7.65;6.20;;;;;;;12.37;71.27;102327.81;3568885;40;20969;-63
2022/07/06 02:36:13;;;;;;;10.13;5.90;;;;;;;12.22;71.62;102308.72;3567780;40;20053;-64
2022/07/06 02:38:39;;;;;;;8.15;5.60;;;;;;;12.31;71.49;102327.16;3568555;40;20054;-64
2022/07/06 02:41:04;;;;;;;10.10;5.82;;;;;;;12.29;71.00;102320.97;3568126;40;20060;-64
2022/07/06 02:43:30;;;;;;;7.22;5.90;;;;;;;12.28;70.84;102330.00;3571344;40;20052;-63
2022/07/06 02:45:55;;;;;;;6.53;5.45;;;;;;;12.23;71.04;102315.84;3570222;40;20073;-63
2022/07/06 02:48:21;;;;;;;6.80;5.78;;;;;;;12.30;71.06;102328.13;3569942;40;20048;-63
2022/07/06 02:50:47;;;;;;;7.32;6.03;;;;;;;12.28;71.55;102321.91;3569992;40;20102;-64
2022/07/06 02:53:13;;;;;;;7.97;5.85;;;;;;;12.26;71.11;102325.63;3568869;40;20060;-63
2022/07/06 02:55:39;;;;;;;7.75;5.97;;;;;;;12.26;71.21;102336.41;3570609;40;20322;-63
2022/07/06 02:58:04;;;;;;;9.32;5.90;;;;;;;12.24;71.68;102333.78;3569303;40;20049;-64
2022/07/06 03:00:30;;;;;;;7.00;5.40;;;;;;;12.25;71.94;102334.66;3569489;40;20053;-63
2022/07/06 03:02:55;;;;;;;9.35;5.78;;;;;;;12.20;71.37;102342.94;3570156;40;20057;-63
2022/07/06 03:05:21;;;;;;;6.90;5.47;;;;;;;12.02;71.94;102311.41;3569951;40;20134;-63
2022/07/06 03:07:47;;;;;;;7.30;5.70;;;;;;;12.20;72.12;102340.25;3570250;40;20064;-63
2022/07/06 03:10:12;;;;;;;6.35;5.75;;;;;;;12.26;72.34;102337.28;3571747;40;20065;-63
2022/07/06 03:12:38;;;;;;;7.45;5.93;;;;;;;11.71;71.78;102248.06;3570918;40;20297;-63
2022/07/06 03:15:04;;;;;;;7.22;5.90;;;;;;;12.27;71.96;102328.25;3570044;40;20071;-64
2022/07/06 03:17:29;;;;;;;8.63;5.55;;;;;;;12.29;71.95;102342.53;3570589;40;20056;-64
2022/07/06 03:19:55;;;;;;;7.68;5.45;;;;;;;12.29;71.29;102342.53;3567765;40;20057;-64
2022/07/06 03:22:21;;;;;;;6.28;5.35;;;;;;;12.31;71.57;102346.03;3568408;40;20366;-64
2022/07/06 03:24:46;;;;;;;6.20;5.60;;;;;;;12.28;71.62;102348.88;3568455;40;20068;-64
2022/07/06 03:27:12;;;;;;;8.65;5.95;;;;;;;12.31;71.57;102354.13;3559718;40;20061;-64
2022/07/06 03:29:37;;;;;;;7.20;5.93;;;;;;;12.30;71.46;102343.41;3568229;40;20060;-63
2022/07/06 03:32:03;;;;;;;6.82;5.13;;;;;;;12.30;71.68;102349.69;3569395;40;20053;-63
2022/07/06 03:34:29;;;;;;;7.97;5.80;;;;;;;12.30;72.12;102341.59;3569758;40;20057;-63
2022/07/06 03:36:54;;;;;;;7.85;5.85;;;;;;;12.28;72.29;102338.09;3569301;40;20064;-63
2022/07/06 03:39:20;;;;;;;11.35;5.90;;;;;;;12.27;71.49;102344.44;3569874;40;20052;-63
2022/07/06 03:41:45;;;;;;;6.75;6.10;;;;;;;12.28;72.37;102346.19;3567088;40;20324;-64
2022/07/06 03:44:11;;;;;;;8.65;5.63;;;;;;;12.32;72.02;102344.22;3568380;40;20053;-64
2022/07/06 03:46:37;;;;;;;7.38;5.90;;;;;;;12.30;71.73;102347.00;3569852;40;20060;-63
2022/07/06 03:49:02;;;;;;;7.07;5.88;;;;;;;12.29;72.37;102342.53;3570202;40;20048;-63
2022/07/06 03:51:28;;;;;;;7.30;5.32;;;;;;;12.30;72.38;102348.78;3568245;40;20048;-63
2022/07/06 03:53:53;;;;;;;7.25;5.50;;;;;;;12.31;72.10;102345.16;3569042;40;20075;-63
2022/07/06 03:56:28;;;;;;;6.95;5.65;;;;;;;12.34;71.91;102344.13;3568052;40;20065;-63
2022/07/06 03:58:59;;;;;;;10.05;5.55;;;;;;;12.42;71.92;102347.38;3568239;40;20061;-63
2022/07/06 04:01:26;;;;;;;7.45;5.32;;;;;;;12.45;71.25;102334.63;3569806;40;20061;-62
2022/07/06 04:03:52;;;;;;;6.28;5.03;;;;;;;12.48;71.52;102341.72;3568915;40;20141;-63
2022/07/06 04:06:18;;;;;;;8.05;6.07;;;;;;;12.41;71.59;102322.22;3567872;40;20253;-63
2022/07/06 04:08:44;;;;;;;9.98;6.10;;;;;;;12.54;71.27;102342.28;3569049;40;20140;-64
2022/07/06 04:11:10;;;;;;;9.35;6.43;;;;;;;12.55;71.28;102348.56;3569481;40;20154;-63
2022/07/06 04:13:36;;;;;;;7.25;6.03;;;;;;;12.52;71.37;102337.91;3572932;40;20053;-64
2022/07/06 04:16:03;;;;;;;8.05;5.88;;;;;;;12.32;71.57;102299.25;3570116;40;20045;-63
2022/07/06 04:18:28;;;;;;;8.05;5.68;;;;;;;12.54;71.74;102336.03;3569108;40;20053;-64
2022/07/06 04:20:54;;;;;;;7.53;5.93;;;;;;;12.50;71.60;102329.91;3569552;40;20064;-63
2022/07/06 04:23:20;;;;;;;8.60;6.13;;;;;;;12.49;71.87;102333.53;3571972;40;20561;-63
2022/07/06 04:25:45;;;;;;;8.35;5.88;;;;;;;12.49;71.52;102325.44;3573803;40;20056;-63
2022/07/06 04:28:11;;;;;;;12.40;6.18;;;;;;;12.52;71.36;102327.13;3573827;40;20203;-63
2022/07/06 04:30:36;;;;;;;10.18;6.05;;;;;;;12.56;72.14;102323.38;3571452;40;20055;-63
2022/07/06 04:33:02;;;;;;;9.55;5.88;;;;;;;12.59;71.90;102328.63;3571649;40;20129;-64
2022/07/06 04:35:28;;;;;;;7.70;6.05;;;;;;;12.63;71.02;102329.34;3572243;40;20145;-64
2022/07/06 04:37:53;;;;;;;8.05;6.45;;;;;;;12.65;70.96;102327.44;3569330;40;20088;-61
2022/07/06 04:40:19;;;;;;;7.18;5.60;;;;;;;12.64;71.69;102321.16;3568525;40;20454;-61
2022/07/06 04:42:45;;;;;;;7.43;5.93;;;;;;;12.70;71.74;102323.56;3571869;40;20057;-61
2022/07/06 04:45:11;;;;;;;8.48;5.57;;;;;;;12.75;71.04;102320.69;3570026;40;20059;-61
2022/07/06 04:47:37;;;;;;;9.88;6.75;;;;;;;12.77;71.22;102326.88;3571661;40;20307;-61
2022/07/06 04:50:04;;;;;;;6.40;5.35;;;;;;;12.82;71.38;102329.34;3570160;40;20084;-62
2022/07/06 04:52:30;;;;;;;8.15;5.45;;;;;;;12.83;71.41;102326.56;3570047;40;20082;-61
2022/07/06 04:54:55;;;;;;;7.60;5.75;;;;;;;12.93;71.25;102330.56;3569636;40;20379;-61
2022/07/06 04:57:22;;;;;;;6.75;5.75;;;;;;;12.94;70.70;102323.34;3567450;40;20304;-62
2022/07/06 04:59:48;;;;;;;6.40;5.80;;;;;;;13.02;70.95;102326.56;3568272;40;20072;-62
2022/07/06 05:02:13;;;;;;;7.78;5.43;;;;;;;13.06;70.58;102319.19;3566530;40;20158;-60
2022/07/06 05:04:39;;;;;;;8.70;5.97;;;;;;;13.11;70.86;102322.56;3570814;40;20135;-62
2022/07/06 05:07:05;;;;;;;8.13;5.85;;;;;;;13.14;70.40;102331.38;3570721;40;20065;-60
2022/07/06 05:09:30;;;;;;;7.82;5.50;;;;;;;13.22;70.73;102334.59;3570870;40;20057;-60
2022/07/06 05:11:56;;;;;;;6.20;4.93;;;;;;;12.70;70.63;102239.94;3570831;40;20052;-60
2022/07/06 05:14:22;;;;;;;7.68;4.95;;;;;;;13.38;70.15;102334.75;3568507;40;20164;-60
2022/07/06 05:16:47;;;;;;;6.43;5.00;;;;;;;13.52;69.72;102342.16;3570169;40;20060;-60
2022/07/06 05:19:13;;;;;;;7.90;5.18;;;;;;;13.63;69.97;102345.19;3568530;40;20068;-60
2022/07/06 05:21:38;;;;;;;6.38;5.53;;;;;;;13.77;69.54;102346.34;3571347;40;20322;-61
2022/07/06 05:24:04;;;;;;;5.95;4.63;;;;;;;13.83;69.61;102336.09;3568081;40;20064;-60
2022/07/06 05:26:30;;;;;;;7.65;4.88;;;;;;;14.01;69.24;102350.47;3573449;40;21814;-61
2022/07/06 05:28:55;;;;;;;7.22;4.70;;;;;;;14.11;69.16;102357.16;3570225;40;20311;-61
2022/07/06 05:31:21;;;;;;;4.88;4.35;;;;;;;14.25;68.56;102360.97;3569680;40;20063;-61
2022/07/06 05:33:47;;;;;;;6.68;4.80;;;;;;;14.32;68.73;102355.13;3571659;40;20060;-61
2022/07/06 05:36:13;;;;;;;5.88;4.55;;;;;;;14.49;67.88;102351.53;3571429;40;20069;-61
2022/07/06 05:38:38;;;;;;;4.88;3.92;;;;;;;14.60;67.33;102365.38;3573704;40;20241;-61
2022/07/06 05:41:04;;;;;;;7.43;4.00;;;;;;;14.74;67.82;102355.63;3570429;40;20296;-61
2022/07/06 05:43:29;;;;;;;11.05;3.63;;;;;;;14.83;66.71;102352.44;3569603;40;20060;-61
2022/07/06 05:45:55;;;;;;;5.32;3.70;;;;;;;14.93;66.35;102356.38;3570773;40;20456;-61
2022/07/06 05:51:05;;;;;;;8.57;3.60;;;;;;;15.19;66.35;102360.34;3571251;40;20083;-62
2022/07/06 05:53:30;;;;;;;3.63;2.95;;;;;;;15.31;65.26;102356.03;3570874;40;20069;-61
2022/07/06 05:55:56;;;;;;;3.20;2.90;;;;;;;15.22;65.22;102326.75;3570258;40;20053;-62
2022/07/06 05:58:24;;;;;;;3.85;3.00;;;;;;;15.55;65.03;102356.47;3558927;40;20069;-61
2022/07/06 06:00:49;;;;;;;3.60;2.75;;;;;;;15.66;64.14;102353.97;3566691;40;20072;-60
2022/07/06 06:03:15;;;;;;;4.20;2.67;;;;;;;15.83;63.47;102355.75;3570580;40;20053;-61
2022/07/06 06:05:41;;;;;;;3.25;2.10;;;;;;;15.95;62.61;102368.56;3570125;40;20048;-61
2022/07/06 06:08:06;;;;;;;3.47;2.47;;;;;;;16.10;61.88;102366.75;3567580;40;20059;-61
2022/07/06 06:10:32;;;;;;;4.55;2.33;;;;;;;16.07;61.40;102344.38;3566888;40;21767;-61
2022/07/06 06:12:58;;;;;;;3.67;2.47;;;;;;;16.00;61.73;102309.47;3568868;40;20063;-61
2022/07/06 06:15:24;;;;;;;5.07;2.63;;;;;;;16.46;61.17;102362.78;3570363;40;20061;-62
2022/07/06 06:17:49;;;;;;;4.82;2.75;;;;;;;16.32;61.04;102325.63;3571454;40;20084;-62
2022/07/06 06:20:15;;;;;;;4.88;2.60;;;;;;;16.71;60.88;102362.09;3568701;40;20127;-62
2022/07/06 06:22:53;;;;;;;5.32;2.40;;;;;;;16.78;59.64;102368.94;3570614;40;20395;-62
2022/07/06 06:25:37;;;;;;;3.30;2.30;;;;;;;16.81;59.94;102368.75;3570057;40;20111;-62
2022/07/06 06:28:09;;;;;;;4.63;2.08;;;;;;;16.84;59.56;102373.06;3568638;40;20311;-62
2022/07/06 06:30:36;;;;;;;3.60;1.95;;;;;;;16.88;60.12;102364.66;3569027;40;20071;-62
2022/07/06 06:33:12;;;;;;;4.60;2.22;;;;;;;16.96;59.24;102374.16;3568526;40;20056;-62
2022/07/06 06:35:47;;;;;;;2.85;2.17;;;;;;;16.98;59.51;102364.94;3568719;40;20092;-62
2022/07/06 06:38:13;;;;;;;3.08;2.03;;;;;;;16.96;59.67;102369.59;3559376;40;20069;-62
2022/07/06 06:40:39;;;;;;;2.22;1.70;;;;;;;16.82;59.46;102351.47;3570072;40;20358;-62
2022/07/06 06:43:05;;;;;;;4.63;1.80;;;;;;;16.96;59.39;102376.88;3565770;40;20055;-62
2022/07/06 06:45:31;;;;;;;2.00;1.60;;;;;;;16.86;59.42;102360.28;3569321;40;20306;-61
2022/07/06 06:47:56;;;;;;;5.63;1.90;;;;;;;16.91;58.84;102379.88;3566409;40;20068;-61
2022/07/06 06:50:24;;;;;;;1.98;1.85;;;;;;;16.89;59.36;102379.09;3558439;40;20056;-61
2022/07/06 06:52:51;;;;;;;2.25;1.88;;;;;;;16.58;59.71;102318.53;3568510;40;20084;-62
2022/07/06 06:55:18;;;;;;;4.78;1.95;;;;;;;16.88;59.85;102380.94;3569256;40;20071;-62
2022/07/06 06:57:45;;;;;;;3.33;2.17;;;;;;;16.68;59.64;102340.56;3569674;40;20048;-62
2022/07/06 07:00:12;;;;;;;3.05;1.60;;;;;;;16.92;58.66;102371.63;3568572;40;20411;-62
2022/07/06 07:02:38;;;;;;;3.75;2.08;;;;;;;17.08;59.64;102376.94;3569204;40;20052;-62
2022/07/06 07:05:05;;;;;;;7.20;1.83;;;;;;;17.28;58.03;102369.34;3569548;40;20119;-62
2022/07/06 07:07:31;;;;;;;1.63;1.52;;;;;;;17.47;57.62;102385.31;3567839;40;20414;-62
2022/07/06 07:09:57;;;;;;;4.30;2.35;;;;;;;17.61;57.55;102385.28;3565969;40;20059;-62
2022/07/06 07:12:22;;;;;;;4.40;1.67;;;;;;;17.79;57.30;102385.91;3568188;40;20052;-62
2022/07/06 07:14:49;;;;;;;3.42;1.73;;;;;;;18.03;56.44;102381.53;3570381;40;20066;-62
2022/07/06 07:17:15;;;;;;;1.92;1.15;;;;;;;18.30;55.04;102389.66;3568409;40;20057;-62
2022/07/06 07:19:40;;;;;;;1.92;0.98;;;;;;;18.54;53.46;102386.16;3565519;40;20060;-62
2022/07/06 07:22:06;;;;;;;1.58;0.80;;;;;;;18.74;51.97;102393.84;3566475;40;20044;-62
2022/07/06 07:24:32;;;;;;;1.40;0.50;;;;;;;18.88;49.93;102373.78;3569847;40;20069;-62
2022/07/06 07:26:57;;;;;;;2.05;0.82;;;;;;;19.11;49.36;102379.41;3570756;40;20407;-63
2022/07/06 07:29:23;;;;;;;1.58;0.60;;;;;;;19.34;49.05;102385.88;3565981;40;20060;-63
2022/07/06 07:31:48;;;;;;;2.83;0.82;;;;;;;19.51;48.22;102388.22;3569541;40;20120;-63
2022/07/06 07:34:14;;;;;;;2.92;0.60;;;;;;;19.59;48.61;102361.22;3568269;40;20065;-62
2022/07/06 07:36:40;;;;;;;2.55;0.90;;;;;;;19.83;46.76;102387.69;3568418;40;20134;-62
2022/07/06 07:39:05;;;;;;;1.58;0.60;;;;;;;19.90;46.95;102384.38;3566635;40;20108;-63
2022/07/06 07:41:31;;;;;;;1.40;0.50;;;;;;;20.14;47.15;102384.34;3567884;40;20106;-63
2022/07/06 07:43:56;;;;;;;2.97;0.70;;;;;;;20.25;45.04;102379.91;3567612;40;20053;-62
2022/07/06 07:46:22;;;;;;;1.50;0.60;;;;;;;20.42;43.41;102382.16;3569389;40;20079;-63
2022/07/06 07:48:48;;;;;;;1.00;0.50;;;;;;;20.50;41.39;102389.75;3568398;40;20120;-63
2022/07/06 07:51:13;;;;;;;1.75;0.35;;;;;;;20.54;41.46;102374.91;3567836;40;20068;-63
2022/07/06 07:53:39;;;;;;;0.32;0.32;;;;;;;20.68;41.58;102376.50;3566930;40;20064;-63
2022/07/06 07:56:05;;;;;;;1.23;0.38;;;;;;;20.99;40.46;102389.44;3568631;40;20083;-63
2022/07/06 07:58:31;;;;;;;2.10;0.70;;;;;;;21.19;41.58;102387.84;3568490;40;20076;-63
2022/07/06 08:00:57;;;;;;;0.38;0.20;;;;;;;21.26;40.81;102382.72;3566949;40;20092;-62
2022/07/06 08:03:23;;;;;;;3.63;0.65;;;;;;;21.38;40.44;102378.16;3568610;40;20049;-64
2022/07/06 08:05:48;;;;;;;2.80;0.85;;;;;;;21.48;41.84;102373.66;3567753;40;20064;-63
2022/07/06 08:08:15;;;;;;;1.55;0.40;;;;;;;21.61;40.12;102373.47;3568330;40;20075;-63
2022/07/06 08:10:41;;;;;;;1.90;0.52;;;;;;;21.65;39.78;102344.84;3568654;40;20134;-63
2022/07/06 08:13:07;;;;;;;1.05;0.52;;;;;;;21.91;39.98;102354.44;3567539;40;20071;-63
2022/07/06 08:15:34;;;;;;;0.93;0.30;;;;;;;21.93;41.68;102357.06;3569367;40;20089;-64
2022/07/06 08:17:59;;;;;;;1.75;0.45;;;;;;;22.17;39.97;102376.00;3569476;40;20048;-63
2022/07/06 08:20:25;;;;;;;2.63;0.60;;;;;;;22.33;39.30;102375.53;3566286;40;20299;-63
2022/07/06 08:22:51;;;;;;;0.22;0.22;;;;;;;22.45;40.43;102369.88;3568742;40;20130;-63
2022/07/06 08:25:17;;;;;;;1.00;0.50;;;;;;;22.47;38.42;102372.47;3558967;40;20061;-64
2022/07/06 08:27:43;;;;;;;0.82;0.47;;;;;;;22.43;38.27;102377.34;3567799;40;20633;-64
2022/07/06 08:30:11;;;;;;;1.80;0.60;;;;;;;22.40;39.01;102376.75;3558482;40;20372;-64
2022/07/06 08:32:41;;;;;;;2.25;0.60;;;;;;;22.43;38.48;102366.38;3568598;40;20300;-64
2022/07/06 08:35:08;;;;;;;1.23;0.57;;;;;;;22.52;39.53;102353.75;3567750;40;20081;-64
2022/07/06 08:37:33;;;;;;;1.38;0.43;;;;;;;22.75;38.58;102365.41;3568630;40;20157;-64
2022/07/06 08:39:59;;;;;;;1.15;0.50;;;;;;;23.08;40.50;102366.16;3568512;40;20085;-64
2022/07/06 08:42:33;;;;;;;1.75;0.80;;;;;;;23.17;39.84;102362.56;3569108;40;20403;-63
2022/07/06 08:45:01;;;;;;;3.15;0.85;;;;;;;23.06;39.48;102363.56;3567554;40;20069;-64
2022/07/06 08:47:29;;;;;;;1.02;0.50;;;;;;;22.90;39.61;102355.81;3569306;40;20079;-64
2022/07/06 08:49:55;;;;;;;1.17;0.55;;;;;;;22.68;38.46;102354.13;3569437;40;20080;-63
2022/07/06 08:52:24;;;;;;;1.00;0.30;;;;;;;22.86;37.41;102362.56;3568804;40;20057;-63
2022/07/06 08:54:50;;;;;;;2.50;0.60;;;;;;;22.97;38.01;102358.03;3567778;40;20114;-63
2022/07/06 08:57:17;;;;;;;1.00;0.40;;;;;;;23.04;36.98;102357.34;3570991;40;20348;-64
2022/07/06 08:59:42;;;;;;;0.85;0.47;;;;;;;23.03;38.33;102357.47;3565981;40;20061;-64
2022/07/06 09:02:11;;;;;;;1.23;0.47;;;;;;;23.06;38.64;102358.06;3572356;40;20060;-63
2022/07/06 09:04:38;;;;;;;1.02;0.50;;;;;;;22.89;38.79;102356.81;3567129;40;20061;-64
2022/07/06 09:07:04;;;;;;;2.03;0.50;;;;;;;22.68;38.68;102364.22;3568385;40;20056;-64
2022/07/06 09:09:31;;;;;;;1.27;0.40;;;;;;;22.45;40.62;102358.00;3571134;40;20057;-64
2022/07/06 09:11:57;;;;;;;2.33;0.43;;;;;;;22.48;40.64;102353.13;3570590;40;20076;-64
2022/07/06 09:14:23;;;;;;;2.25;0.63;;;;;;;22.64;39.77;102351.78;3568937;40;20133;-64
2022/07/06 09:17:06;;;;;;;2.17;0.63;;;;;;;22.89;38.58;102350.44;3570635;40;20053;-64
2022/07/06 09:19:34;;;;;;;1.17;0.30;;;;;;;22.92;39.20;102355.66;3568291;40;20084;-64
2022/07/06 09:22:01;;;;;;;1.05;0.47;;;;;;;23.02;39.18;102328.28;3566960;40;20045;-64
2022/07/06 09:24:27;;;;;;;1.98;0.30;;;;;;;23.32;37.82;102350.19;3567579;40;20149;-64
2022/07/06 09:26:58;;;;;;;1.77;0.43;;;;;;;23.47;40.14;102353.41;3571640;40;20560;-64
2022/07/06 09:29:33;;;;;;;2.00;0.63;;;;;;;23.76;38.80;102347.09;3572765;40;20383;-64
2022/07/06 09:32:05;;;;;;;1.35;0.60;;;;;;;24.05;36.74;102349.84;3570431;40;20088;-63
2022/07/06 09:34:45;;;;;;;3.38;0.60;;;;;;;24.29;36.69;102360.34;3571502;40;20044;-62
2022/07/06 09:37:14;;;;;;;0.93;0.57;;;;;;;24.16;36.80;102357.91;3570113;40;20393;-64
2022/07/06 09:39:43;;;;;;;0.90;0.45;;;;;;;24.25;37.41;102356.16;3569407;40;20069;-64
2022/07/06 09:42:08;;;;;;;2.22;0.70;;;;;;;24.23;35.68;102356.34;3569317;40;20049;-64
2022/07/06 09:44:39;;;;;;;1.55;0.57;;;;;;;24.10;36.21;102358.50;3572724;40;20126;-64
2022/07/06 09:47:11;;;;;;;1.10;0.52;;;;;;;23.73;36.48;102362.00;3572386;40;20092;-64
2022/07/06 09:49:40;;;;;;;2.08;0.43;;;;;;;23.49;37.64;102364.22;3571552;40;20061;-64
2022/07/06 09:52:09;;;;;;;1.08;0.68;;;;;;;23.29;37.60;102372.44;3569867;40;20053;-63
2022/07/06 09:54:38;;;;;;;1.10;0.55;;;;;;;23.06;37.83;102374.53;3569304;40;20056;-64
2022/07/06 09:57:05;;;;;;;2.20;0.70;;;;;;;22.91;38.06;102371.25;3568973;40;20079;-63
2022/07/06 09:59:35;;;;;;;2.50;0.70;;;;;;;22.81;38.02;102361.25;3564082;40;20044;-64
2022/07/06 10:02:05;;;;;;;1.15;0.50;;;;;;;22.83;38.82;102368.31;3572531;40;20295;-64
2022/07/06 10:04:32;;;;;;;0.70;0.57;;;;;;;22.79;39.34;102366.88;3571958;40;20390;-64
2022/07/06 10:07:00;;;;;;;1.35;0.70;;;;;;;22.56;38.86;102348.88;3572531;40;20060;-64
2022/07/06 10:09:29;;;;;;;0.70;0.70;;;;;;;22.66;38.62;102371.72;3574065;40;20080;-64
2022/07/06 10:12:01;;;;;;;1.42;0.52;;;;;;;22.52;38.14;102366.56;3571475;40;20414;-65
2022/07/06 10:14:30;;;;;;;2.08;1.08;;;;;;;22.58;38.72;102374.25;3571989;40;20408;-64
2022/07/06 10:16:59;;;;;;;2.50;1.25;;;;;;;22.66;38.67;102375.31;3571227;40;20049;-63
2022/07/06 10:19:27;;;;;;;1.80;0.73;;;;;;;22.72;39.11;102371.16;3575042;40;20060;-63
2022/07/06 10:21:52;;;;;;;1.02;0.65;;;;;;;22.74;38.85;102373.75;3574397;40;20057;-63
2022/07/06 10:24:20;;;;;;;1.33;0.50;;;;;;;22.63;37.99;102372.84;3570952;40;20099;-65
2022/07/06 10:26:46;;;;;;;2.08;0.75;;;;;;;22.67;37.78;102367.94;3570752;40;20056;-65
2022/07/06 10:29:14;;;;;;;1.65;0.90;;;;;;;22.66;37.10;102372.56;3569129;40;20084;-64
2022/07/06 10:31:48;;;;;;;0.65;0.50;;;;;;;22.28;37.01;102303.84;3569520;40;20055;-64
2022/07/06 10:34:18;;;;;;;1.10;0.68;;;;;;;22.59;36.98;102376.88;3571943;40;20077;-63
2022/07/06 10:36:48;;;;;;;1.35;0.80;;;;;;;22.56;37.01;102370.78;3570619;40;20058;-63
2022/07/06 10:41:58;;;;;;;2.42;0.80;;;;;;;22.69;37.02;102364.06;3569929;40;20120;-63
2022/07/06 10:44:27;;;;;;;5.35;0.85;;;;;;;22.88;38.85;102371.53;3573044;40;20068;-63
2022/07/06 10:46:58;;;;;;;2.15;0.50;;;;;;;23.08;36.24;102371.63;3571110;40;20058;-63
2022/07/06 10:49:26;;;;;;;0.90;0.40;;;;;;;23.15;36.57;102370.06;3570264;40;20056;-63
2022/07/06 10:51:52;;;;;;;0.93;0.60;;;;;;;23.16;36.00;102372.69;3569127;40;20134;-64
2022/07/06 10:54:20;;;;;;;6.72;0.73;;;;;;;23.09;36.76;102363.28;3571533;40;20056;-63
2022/07/06 10:56:50;;;;;;;1.65;0.35;;;;;;;23.12;35.97;102362.09;3575790;40;20455;-64
2022/07/06 10:59:22;;;;;;;3.17;0.60;;;;;;;23.15;36.43;102367.31;3570326;40;20068;-63
2022/07/06 11:02:16;;;;;;;2.55;0.77;;;;;;;23.18;36.52;102367.03;3569817;40;20070;-65
2022/07/06 11:04:45;;;;;;;1.27;0.47;;;;;;;23.22;35.41;102356.69;3569002;40;20045;-64
2022/07/06 11:07:16;;;;;;;1.40;0.57;;;;;;;23.25;37.02;102340.78;3564202;40;20057;-65
2022/07/06 11:09:56;;;;;;;1.50;0.52;;;;;;;23.48;36.53;102352.38;3573416;40;20430;-63
2022/07/06 11:12:22;;;;;;;2.30;0.40;;;;;;;23.70;36.12;102354.03;3567167;40;20088;-62
2022/07/06 11:14:51;;;;;;;0.90;0.50;;;;;;;23.85;34.67;102336.13;3573178;40;20063;-64
2022/07/06 11:17:18;;;;;;;1.30;0.50;;;;;;;24.04;34.17;102348.97;3572318;40;20060;-63
2022/07/06 11:20:08;;;;;;;3.67;0.80;;;;;;;24.00;35.86;102346.66;3572310;40;20052;-64
2022/07/06 11:22:38;;;;;;;1.95;0.90;;;;;;;23.97;34.60;102349.69;3570777;40;20097;-64
2022/07/06 11:25:06;;;;;;;1.25;0.70;;;;;;;24.01;34.93;102351.16;3567995;40;20760;-62
2022/07/06 11:27:34;;;;;;;1.67;0.40;;;;;;;24.23;34.11;102348.09;3570201;40;20107;-64
2022/07/06 11:30:00;;;;;;;4.20;0.60;;;;;;;24.76;33.23;102354.91;3574561;40;20055;-63